Time;durP1;ratioP1;P1;durP2;ratioP2;P2;SDS_P1;SDS_P2;PMS_P1;PMS_P2;Temp;Humidity;BMP_temperature;BMP_pressure;BME280_temperature;BME280_humidity;BME280_pressure;Samples;Min_cycle;Max_cycle;Signal;HPM_P1;HPM_P2
2022/08/02 00:01:24;;;;;;;8.32;7.50;;;;;;;;;;5054973;28;20083;-75
2022/08/02 00:03:50;;;;;;;9.77;7.47;;;;;;;;;;5054818;28;20043;-75
2022/08/02 00:06:15;;;;;;;8.95;7.30;;;;;;;;;;5054899;28;20103;-75
2022/08/02 00:08:42;;;;;;;7.00;6.30;;;;;;;;;;5055567;28;20036;-75
2022/08/02 00:11:07;;;;;;;7.68;6.97;;;;;;;;;;5055362;28;20078;-75
2022/08/02 00:13:32;;;;;;;8.15;7.35;;;;;;;;;;5055031;28;20033;-75
2022/08/02 00:15:58;;;;;;;7.30;6.65;;;;;;;;;;5054971;28;20017;-75
2022/08/02 00:18:23;;;;;;;7.70;6.25;;;;;;;;;;5054960;28;20112;-75
2022/08/02 00:20:48;;;;;;;5.82;5.25;;;;;;;;;;5054494;28;20017;-75
2022/08/02 00:23:16;;;;;;;6.35;5.90;;;;;;;;;;5054919;28;20052;-75
2022/08/02 00:25:41;;;;;;;6.82;6.20;;;;;;;;;;5054832;28;20014;-75
2022/08/02 00:28:09;;;;;;;6.82;5.88;;;;;;;;;;5054462;28;20400;-75
2022/08/02 00:30:35;;;;;;;4.93;4.57;;;;;;;;;;5053472;28;20013;-75
2022/08/02 00:33:01;;;;;;;4.78;4.38;;;;;;;;;;5055195;28;20369;-75
2022/08/02 00:35:26;;;;;;;4.88;4.50;;;;;;;;;;5054664;28;20021;-76
2022/08/02 00:37:52;;;;;;;4.70;4.05;;;;;;;;;;5053044;28;20047;-75
2022/08/02 00:40:20;;;;;;;5.38;4.97;;;;;;;;;;5054507;28;20056;-75
2022/08/02 00:42:46;;;;;;;5.55;4.90;;;;;;;;;;5054222;28;20484;-75
2022/08/02 00:45:11;;;;;;;5.15;4.75;;;;;;;;;;5054480;28;20031;-77
2022/08/02 00:47:38;;;;;;;6.55;5.22;;;;;;;;;;5052887;28;20057;-75
2022/08/02 00:50:03;;;;;;;5.15;4.75;;;;;;;;;;5054373;28;20017;-76
2022/08/02 00:52:29;;;;;;;4.72;4.32;;;;;;;;;;5053683;28;20120;-75
2022/08/02 00:54:54;;;;;;;5.03;4.63;;;;;;;;;;5054329;28;20441;-75
2022/08/02 00:57:19;;;;;;;4.38;4.07;;;;;;;;;;5054535;28;20021;-76
2022/08/02 00:59:45;;;;;;;4.78;4.47;;;;;;;;;;5053911;28;20028;-76
2022/08/02 01:02:10;;;;;;;4.53;4.22;;;;;;;;;;5036123;28;20094;-75
2022/08/02 01:04:36;;;;;;;4.40;4.05;;;;;;;;;;5054405;28;20063;-75
2022/08/02 01:07:02;;;;;;;4.47;4.20;;;;;;;;;;5052897;28;20033;-75
2022/08/02 01:09:28;;;;;;;4.05;3.85;;;;;;;;;;5053800;28;20074;-75
2022/08/02 01:11:54;;;;;;;4.80;3.97;;;;;;;;;;5053906;28;20481;-75
2022/08/02 01:14:21;;;;;;;4.78;4.38;;;;;;;;;;5053721;28;20017;-76
2022/08/02 01:16:58;;;;;;;5.60;5.13;;;;;;;;;;5054217;28;20021;-75
2022/08/02 01:19:42;;;;;;;8.00;7.20;;;;;;;;;;5052832;28;20071;-76
2022/08/02 01:22:08;;;;;;;9.07;8.23;;;;;;;;;;5052362;28;20369;-75
2022/08/02 01:24:52;;;;;;;8.90;8.10;;;;;;;;;;5035759;28;20028;-75
2022/08/02 01:27:32;;;;;;;8.77;7.88;;;;;;;;;;5053747;28;20043;-76
2022/08/02 01:29:59;;;;;;;9.60;8.67;;;;;;;;;;5053819;28;20487;-75
2022/08/02 01:32:28;;;;;;;9.45;8.55;;;;;;;;;;5053455;28;20021;-76
2022/08/02 01:35:01;;;;;;;9.15;8.32;;;;;;;;;;5054083;28;20496;-76
2022/08/02 01:37:36;;;;;;;9.40;8.48;;;;;;;;;;5052586;28;20040;-76
2022/08/02 01:40:07;;;;;;;9.10;8.30;;;;;;;;;;5053716;28;20043;-76
2022/08/02 01:42:32;;;;;;;9.70;6.40;;;;;;;;;;5053472;28;20051;-76
2022/08/02 01:45:01;;;;;;;6.78;5.90;;;;;;;;;;5052139;28;20460;-77
2022/08/02 01:47:29;;;;;;;6.25;5.65;;;;;;;;;;5053828;28;20035;-77
2022/08/02 01:49:56;;;;;;;6.00;5.25;;;;;;;;;;5052495;28;20100;-77
2022/08/02 01:52:25;;;;;;;5.85;5.38;;;;;;;;;;5053408;28;20373;-76
2022/08/02 01:55:00;;;;;;;7.05;6.25;;;;;;;;;;5053611;28;20108;-76
2022/08/02 01:57:28;;;;;;;5.47;5.03;;;;;;;;;;5052191;28;20037;-77
2022/08/02 01:59:55;;;;;;;6.10;5.63;;;;;;;;;;5035362;28;20025;-76
2022/08/02 02:02:22;;;;;;;7.45;5.68;;;;;;;;;;5053724;28;20036;-75
2022/08/02 02:04:48;;;;;;;5.80;5.32;;;;;;;;;;5053387;28;20075;-75
2022/08/02 02:07:15;;;;;;;6.55;5.13;;;;;;;;;;5053663;28;20475;-75
2022/08/02 02:09:41;;;;;;;6.45;5.90;;;;;;;;;;5053473;28;20025;-75
2022/08/02 02:12:08;;;;;;;5.78;5.28;;;;;;;;;;5053088;28;20544;-75
2022/08/02 02:14:34;;;;;;;6.38;5.88;;;;;;;;;;5053405;28;20029;-75
2022/08/02 02:17:01;;;;;;;5.72;5.18;;;;;;;;;;5051946;28;20033;-76
2022/08/02 02:19:27;;;;;;;5.80;5.28;;;;;;;;;;5053381;28;20488;-75
2022/08/02 02:21:52;;;;;;;5.85;5.30;;;;;;;;;;5053116;28;20029;-76
2022/08/02 02:24:19;;;;;;;5.85;5.25;;;;;;;;;;5051762;28;20029;-76
2022/08/02 02:26:45;;;;;;;6.35;5.78;;;;;;;;;;5051901;28;20044;-76
2022/08/02 02:29:12;;;;;;;8.00;7.30;;;;;;;;;;5053321;28;20021;-76
2022/08/02 02:31:38;;;;;;;7.80;7.00;;;;;;;;;;5053234;28;20040;-76
2022/08/02 02:34:09;;;;;;;6.85;6.25;;;;;;;;;;5053530;28;20412;-76
2022/08/02 02:36:36;;;;;;;7.03;6.43;;;;;;;;;;5053570;28;20037;-76
2022/08/02 02:39:04;;;;;;;7.00;6.32;;;;;;;;;;5035100;28;20380;-75
2022/08/02 02:41:30;;;;;;;6.38;5.88;;;;;;;;;;5053006;28;20021;-75
2022/08/02 02:43:57;;;;;;;7.35;6.68;;;;;;;;;;5053722;28;20564;-75
2022/08/02 02:46:25;;;;;;;6.38;5.75;;;;;;;;;;5038515;28;20391;-75
2022/08/02 02:48:51;;;;;;;6.50;6.03;;;;;;;;;;5056706;28;20105;-75
2022/08/02 02:51:18;;;;;;;6.53;5.88;;;;;;;;;;5056619;28;20469;-75
2022/08/02 02:53:45;;;;;;;6.28;5.70;;;;;;;;;;5056608;28;20029;-75
2022/08/02 02:56:12;;;;;;;5.97;5.55;;;;;;;;;;5056431;28;20025;-75
2022/08/02 02:58:37;;;;;;;6.20;5.78;;;;;;;;;;5056525;28;20381;-75
2022/08/02 03:03:48;;;;;;;6.85;6.28;;;;;;;;;;5056365;28;20037;-74
2022/08/02 03:06:13;;;;;;;5.93;5.45;;;;;;;;;;5056603;28;20024;-74
2022/08/02 03:08:40;;;;;;;6.03;5.53;;;;;;;;;;5056295;28;20104;-74
2022/08/02 03:11:07;;;;;;;5.90;5.38;;;;;;;;;;5054758;28;20059;-77
2022/08/02 03:13:33;;;;;;;6.05;5.57;;;;;;;;;;5055963;28;20029;-76
2022/08/02 03:15:58;;;;;;;6.32;5.32;;;;;;;;;;5054690;28;20017;-76
2022/08/02 03:18:31;;;;;;;6.25;5.65;;;;;;;;;;5055928;28;20476;-76
2022/08/02 03:21:03;;;;;;;5.45;5.07;;;;;;;;;;5055875;28;20029;-76
2022/08/02 03:23:29;;;;;;;6.13;5.65;;;;;;;;;;5056346;28;20041;-75
2022/08/02 03:25:55;;;;;;;6.15;5.30;;;;;;;;;;5055656;28;20453;-75
2022/08/02 03:28:20;;;;;;;6.13;5.72;;;;;;;;;;5055964;28;20037;-75
2022/08/02 03:30:46;;;;;;;6.28;5.78;;;;;;;;;;5054490;28;20028;-76
2022/08/02 03:33:11;;;;;;;6.07;5.40;;;;;;;;;;5055941;28;20078;-75
2022/08/02 03:35:37;;;;;;;5.60;5.10;;;;;;;;;;5055513;28;20460;-76
2022/08/02 03:38:03;;;;;;;5.57;5.20;;;;;;;;;;5055496;28;20039;-76
2022/08/02 03:40:29;;;;;;;6.65;6.03;;;;;;;;;;5055844;28;20021;-75
2022/08/02 03:42:55;;;;;;;5.72;5.28;;;;;;;;;;5055394;28;20044;-75
2022/08/02 03:45:20;;;;;;;5.72;5.20;;;;;;;;;;5055395;28;20044;-75
2022/08/02 03:47:46;;;;;;;6.00;5.50;;;;;;;;;;5055562;28;20492;-75
2022/08/02 03:50:15;;;;;;;5.60;5.25;;;;;;;;;;5055557;28;20024;-75
2022/08/02 03:52:41;;;;;;;5.75;5.25;;;;;;;;;;5055003;28;20041;-75
2022/08/02 03:55:07;;;;;;;5.55;5.13;;;;;;;;;;5054931;28;20021;-76
2022/08/02 03:57:35;;;;;;;6.68;6.13;;;;;;;;;;5053368;28;20032;-76
2022/08/02 04:00:01;;;;;;;6.40;5.40;;;;;;;;;;5053858;28;20021;-76
2022/08/02 04:02:26;;;;;;;6.80;6.20;;;;;;;;;;5053957;28;20044;-76
2022/08/02 04:04:52;;;;;;;5.93;5.38;;;;;;;;;;5053759;28;20032;-76
2022/08/02 04:07:17;;;;;;;6.75;6.15;;;;;;;;;;5037048;28;20477;-75
2022/08/02 04:09:42;;;;;;;6.82;6.20;;;;;;;;;;5054882;28;20016;-75
2022/08/02 04:12:08;;;;;;;6.55;5.95;;;;;;;;;;5054946;28;20396;-75
2022/08/02 04:14:34;;;;;;;6.95;6.25;;;;;;;;;;5053530;28;20078;-76
2022/08/02 04:17:04;;;;;;;7.10;6.20;;;;;;;;;;5053931;28;20029;-75
2022/08/02 04:19:30;;;;;;;;;;;;;;;;;;5055477;28;20453;-75
2022/08/02 04:21:56;;;;;;;6.13;5.65;;;;;;;;;;5053776;28;19909;-76
2022/08/02 04:24:33;;;;;;;7.13;6.53;;;;;;;;;;5053387;28;20029;-75
2022/08/02 04:27:00;;;;;;;6.85;6.35;;;;;;;;;;5054578;28;20024;-75
2022/08/02 04:29:26;;;;;;;8.38;7.05;;;;;;;;;;5053538;28;20066;-76
2022/08/02 04:31:54;;;;;;;6.68;6.07;;;;;;;;;;5053249;28;20465;-75
2022/08/02 04:34:20;;;;;;;6.75;6.22;;;;;;;;;;5054479;28;20017;-75
2022/08/02 04:36:46;;;;;;;7.85;6.57;;;;;;;;;;5053829;28;20606;-75
2022/08/02 04:39:11;;;;;;;7.70;6.60;;;;;;;;;;5052455;28;20057;-77
2022/08/02 04:41:39;;;;;;;8.77;7.68;;;;;;;;;;5054090;28;20048;-76
2022/08/02 04:44:04;;;;;;;8.48;7.72;;;;;;;;;;5053904;28;20037;-76
2022/08/02 04:46:31;;;;;;;7.85;7.15;;;;;;;;;;5054258;28;20029;-77
2022/08/02 04:48:56;;;;;;;7.40;6.78;;;;;;;;;;5054542;28;20017;-77
2022/08/02 04:51:22;;;;;;;9.18;7.47;;;;;;;;;;5053533;28;20508;-76
2022/08/02 04:53:48;;;;;;;9.18;7.55;;;;;;;;;;5054480;28;20033;-77
2022/08/02 04:56:14;;;;;;;6.78;6.22;;;;;;;;;;5052741;28;20092;-76
2022/08/02 04:58:39;;;;;;;10.88;8.13;;;;;;;;;;5053894;28;20540;-77
2022/08/02 05:01:04;;;;;;;8.35;7.55;;;;;;;;;;5054262;28;20384;-77
2022/08/02 05:03:30;;;;;;;7.72;7.07;;;;;;;;;;5054388;28;20051;-77
2022/08/02 05:05:55;;;;;;;8.55;7.72;;;;;;;;;;5052846;28;20507;-77
2022/08/02 05:08:21;;;;;;;8.48;7.68;;;;;;;;;;5053794;28;20419;-76
2022/08/02 05:10:46;;;;;;;7.78;7.07;;;;;;;;;;5052530;28;20048;-76
2022/08/02 05:13:13;;;;;;;9.30;8.05;;;;;;;;;;5054046;28;20029;-76
2022/08/02 05:15:38;;;;;;;9.43;8.60;;;;;;;;;;5054024;28;20021;-76
2022/08/02 05:18:04;;;;;;;10.00;9.05;;;;;;;;;;5052442;28;20127;-79
2022/08/02 05:20:31;;;;;;;7.93;7.25;;;;;;;;;;5053693;28;20028;-79
2022/08/02 05:22:57;;;;;;;8.05;7.43;;;;;;;;;;5053571;28;20392;-78
2022/08/02 05:25:22;;;;;;;10.07;8.95;;;;;;;;;;5053483;28;20032;-78
2022/08/02 05:27:47;;;;;;;10.00;9.10;;;;;;;;;;5053305;28;20039;-80
2022/08/02 05:30:15;;;;;;;8.70;7.00;;;;;;;;;;5053433;28;20024;-79
2022/08/02 05:32:44;;;;;;;8.73;7.93;;;;;;;;;;5052411;28;20027;-77
2022/08/02 05:35:11;;;;;;;9.65;8.65;;;;;;;;;;5053943;28;20465;-75
2022/08/02 05:37:36;;;;;;;9.25;8.45;;;;;;;;;;5052206;28;20040;-74
2022/08/02 05:40:02;;;;;;;9.32;8.43;;;;;;;;;;5053871;28;20029;-74
2022/08/02 05:42:31;;;;;;;7.88;7.25;;;;;;;;;;5053587;28;20028;-74
2022/08/02 05:44:57;;;;;;;7.07;6.55;;;;;;;;;;5053476;28;20029;-73
2022/08/02 05:47:23;;;;;;;7.15;6.53;;;;;;;;;;5053453;28;20567;-75
2022/08/02 05:49:48;;;;;;;8.55;7.80;;;;;;;;;;5052619;28;20029;-75
2022/08/02 05:52:15;;;;;;;9.45;8.10;;;;;;;;;;5051798;28;20048;-74
2022/08/02 05:54:49;;;;;;;10.80;9.70;;;;;;;;;;5053327;28;20099;-75
2022/08/02 05:57:36;;;;;;;8.32;7.53;;;;;;;;;;5053156;28;20037;-74
2022/08/02 06:00:09;;;;;;;11.15;9.98;;;;;;;;;;5052812;28;20025;-74
2022/08/02 06:02:37;;;;;;;10.70;9.52;;;;;;;;;;5053419;28;20099;-74
2022/08/02 06:05:04;;;;;;;15.20;12.13;;;;;;;;;;5053533;28;20029;-74
2022/08/02 06:07:33;;;;;;;12.73;11.40;;;;;;;;;;5053403;28;20048;-74
2022/08/02 06:10:00;;;;;;;12.30;11.05;;;;;;;;;;5053189;28;20017;-74
2022/08/02 06:12:28;;;;;;;11.40;10.20;;;;;;;;;;5052922;28;20140;-74
2022/08/02 06:14:53;;;;;;;13.18;11.40;;;;;;;;;;5053165;28;20162;-74
2022/08/02 06:17:19;;;;;;;16.17;14.48;;;;;;;;;;5053096;28;20491;-74
2022/08/02 06:19:45;;;;;;;17.08;13.40;;;;;;;;;;5055299;28;20021;-74
2022/08/02 06:22:15;;;;;;;21.20;16.38;;;;;;;;;;5056895;28;20039;-74
2022/08/02 06:24:44;;;;;;;16.67;14.20;;;;;;;;;;5055846;28;20033;-74
2022/08/02 06:27:12;;;;;;;17.05;14.52;;;;;;;;;;5055646;28;20029;-74
2022/08/02 06:29:37;;;;;;;19.60;17.33;;;;;;;;;;5055740;28;20465;-74
2022/08/02 06:32:05;;;;;;;16.35;12.95;;;;;;;;;;5055652;28;20075;-74
2022/08/02 06:34:34;;;;;;;19.58;14.63;;;;;;;;;;5055620;28;20025;-74
2022/08/02 06:37:05;;;;;;;27.92;19.20;;;;;;;;;;5054160;28;20029;-74
2022/08/02 06:39:33;;;;;;;17.73;14.65;;;;;;;;;;5055456;28;20091;-74
2022/08/02 06:42:00;;;;;;;23.25;19.35;;;;;;;;;;5054240;28;20484;-74
2022/08/02 06:44:37;;;;;;;18.52;15.68;;;;;;;;;;5055404;28;20115;-74
2022/08/02 06:47:03;;;;;;;24.90;18.58;;;;;;;;;;5055281;28;20037;-75
2022/08/02 06:49:28;;;;;;;26.63;20.85;;;;;;;;;;5055329;28;20017;-74
2022/08/02 06:51:54;;;;;;;19.13;16.35;;;;;;;;;;5055143;28;20493;-74
2022/08/02 06:54:20;;;;;;;23.58;19.33;;;;;;;;;;5054107;28;20498;-74
2022/08/02 06:56:46;;;;;;;20.05;16.38;;;;;;;;;;5054013;28;20483;-74
2022/08/02 06:59:11;;;;;;;19.85;15.35;;;;;;;;;;5053907;28;20031;-74
2022/08/02 07:01:37;;;;;;;25.77;21.33;;;;;;;;;;5054146;28;20017;-74
2022/08/02 07:04:03;;;;;;;22.10;17.48;;;;;;;;;;5053768;28;20039;-74
2022/08/02 07:06:28;;;;;;;19.23;15.75;;;;;;;;;;5055026;28;20025;-74
2022/08/02 07:08:54;;;;;;;19.88;15.98;;;;;;;;;;5054987;28;20060;-74
2022/08/02 07:11:19;;;;;;;14.90;13.02;;;;;;;;;;5054973;28;20028;-74
2022/08/02 07:13:45;;;;;;;12.60;11.43;;;;;;;;;;5054897;28;20082;-74
2022/08/02 07:16:10;;;;;;;15.02;12.20;;;;;;;;;;5053568;28;20116;-74
2022/08/02 07:18:35;;;;;;;12.82;11.07;;;;;;;;;;5053484;28;20029;-74
2022/08/02 07:21:04;;;;;;;12.73;11.50;;;;;;;;;;5054746;28;20101;-75
2022/08/02 07:23:29;;;;;;;14.90;13.43;;;;;;;;;;5054681;28;20032;-75
2022/08/02 07:25:54;;;;;;;12.32;11.15;;;;;;;;;;5054618;28;20032;-75
2022/08/02 07:28:20;;;;;;;10.55;9.48;;;;;;;;;;5053275;28;20033;-75
2022/08/02 07:30:45;;;;;;;9.55;8.60;;;;;;;;;;5054462;28;20016;-75
2022/08/02 07:33:11;;;;;;;10.73;9.32;;;;;;;;;;5054517;28;20427;-75
2022/08/02 07:35:36;;;;;;;9.32;8.52;;;;;;;;;;5053282;28;20551;-75
2022/08/02 07:38:01;;;;;;;10.05;8.85;;;;;;;;;;5054481;28;20036;-75
2022/08/02 07:40:27;;;;;;;9.85;8.85;;;;;;;;;;5053120;28;20020;-75
2022/08/02 07:42:55;;;;;;;10.48;8.43;;;;;;;;;;5054397;28;20107;-75
2022/08/02 07:45:21;;;;;;;11.05;10.05;;;;;;;;;;5053140;28;20023;-75
2022/08/02 07:47:47;;;;;;;11.77;10.45;;;;;;;;;;5036625;28;20029;-74
2022/08/02 07:50:13;;;;;;;8.93;8.02;;;;;;;;;;5036330;28;20392;-74
2022/08/02 07:52:40;;;;;;;9.93;8.95;;;;;;;;;;5053977;28;20045;-74
2022/08/02 07:55:05;;;;;;;10.23;9.18;;;;;;;;;;5052846;28;20024;-74
2022/08/02 07:57:31;;;;;;;8.98;8.18;;;;;;;;;;5054017;28;20392;-75
2022/08/02 07:59:57;;;;;;;9.10;8.40;;;;;;;;;;5054071;28;20056;-75
2022/08/02 08:02:23;;;;;;;10.23;9.15;;;;;;;;;;5053925;28;20484;-75
2022/08/02 08:04:49;;;;;;;10.07;9.13;;;;;;;;;;5053994;28;20064;-73
2022/08/02 08:07:14;;;;;;;9.23;8.40;;;;;;;;;;5054299;28;20048;-74
2022/08/02 08:09:43;;;;;;;10.68;8.32;;;;;;;;;;5053934;28;20049;-73
2022/08/02 08:12:10;;;;;;;9.02;8.32;;;;;;;;;;5053830;28;20029;-73
2022/08/02 08:14:36;;;;;;;9.63;8.82;;;;;;;;;;5054077;28;20025;-73
2022/08/02 08:17:02;;;;;;;10.55;9.55;;;;;;;;;;5053699;28;20021;-73
2022/08/02 08:19:27;;;;;;;9.20;8.25;;;;;;;;;;5053984;28;20434;-73
2022/08/02 08:21:53;;;;;;;10.57;8.75;;;;;;;;;;5053576;28;20504;-73
2022/08/02 08:24:18;;;;;;;11.13;10.10;;;;;;;;;;5053565;28;20028;-73
2022/08/02 08:26:43;;;;;;;9.13;8.32;;;;;;;;;;5053401;28;20037;-73
2022/08/02 08:29:09;;;;;;;10.55;9.55;;;;;;;;;;5053509;28;20025;-73
2022/08/02 08:31:34;;;;;;;10.52;9.63;;;;;;;;;;5053509;28;20086;-73
2022/08/02 08:34:00;;;;;;;12.52;11.32;;;;;;;;;;5053316;28;20020;-74
2022/08/02 08:36:26;;;;;;;13.32;11.95;;;;;;;;;;5053341;28;20112;-73
2022/08/02 08:38:51;;;;;;;15.10;13.60;;;;;;;;;;5053264;28;20174;-73
2022/08/02 08:41:17;;;;;;;11.60;10.45;;;;;;;;;;5052945;28;20048;-73
2022/08/02 08:43:42;;;;;;;13.75;12.45;;;;;;;;;;5052956;28;20021;-73
2022/08/02 08:46:09;;;;;;;16.35;14.75;;;;;;;;;;5053071;28;20029;-73
2022/08/02 08:48:38;;;;;;;11.23;10.15;;;;;;;;;;5053496;28;20039;-73
2022/08/02 08:51:09;;;;;;;11.55;10.43;;;;;;;;;;5051645;28;20090;-73
2022/08/02 08:53:39;;;;;;;11.30;10.10;;;;;;;;;;5053058;28;20033;-73
2022/08/02 08:56:05;;;;;;;16.73;15.05;;;;;;;;;;5051390;28;20035;-74
2022/08/02 08:58:30;;;;;;;17.42;15.73;;;;;;;;;;5052877;28;20025;-73
2022/08/02 09:00:55;;;;;;;17.20;15.40;;;;;;;;;;5051761;28;20112;-73
2022/08/02 09:03:21;;;;;;;14.55;13.05;;;;;;;;;;5052823;28;20029;-75
2022/08/02 09:05:46;;;;;;;14.50;13.15;;;;;;;;;;5052850;28;20070;-73
2022/08/02 09:08:12;;;;;;;12.35;11.15;;;;;;;;;;5052732;28;20029;-73
2022/08/02 09:10:39;;;;;;;17.67;15.00;;;;;;;;;;5053274;28;20482;-73
2022/08/02 09:13:04;;;;;;;19.05;17.00;;;;;;;;;;5052781;28;20053;-73
2022/08/02 09:15:30;;;;;;;22.77;19.23;;;;;;;;;;5051756;28;20067;-73
2022/08/02 09:17:55;;;;;;;18.17;16.25;;;;;;;;;;5052616;28;20033;-73
2022/08/02 09:20:20;;;;;;;20.50;18.13;;;;;;;;;;5052596;28;20014;-73
2022/08/02 09:23:04;;;;;;;20.80;18.45;;;;;;;;;;5051352;28;20083;-73
2022/08/02 09:25:30;;;;;;;19.60;17.58;;;;;;;;;;5052480;28;20384;-73
2022/08/02 09:27:56;;;;;;;18.80;16.90;;;;;;;;;;5051260;28;20020;-73
2022/08/02 09:30:22;;;;;;;17.58;15.40;;;;;;;;;;5052467;28;20035;-73
2022/08/02 09:32:48;;;;;;;16.35;14.65;;;;;;;;;;5051095;28;20017;-73
2022/08/02 09:35:29;;;;;;;17.65;15.60;;;;;;;;;;5052416;28;20067;-73
2022/08/02 09:38:06;;;;;;;16.95;15.15;;;;;;;;;;5052352;28;20112;-73
2022/08/02 09:40:36;;;;;;;16.30;14.75;;;;;;;;;;5052404;28;20035;-73
2022/08/02 09:43:01;;;;;;;16.30;14.80;;;;;;;;;;5052330;28;20021;-73
2022/08/02 09:45:33;;;;;;;18.50;16.67;;;;;;;;;;5052268;28;20039;-73
2022/08/02 09:47:59;;;;;;;17.02;15.32;;;;;;;;;;5052133;28;20029;-73
2022/08/02 09:50:24;;;;;;;17.77;16.10;;;;;;;;;;5052324;28;20026;-74
2022/08/02 09:52:50;;;;;;;18.35;16.40;;;;;;;;;;5052006;28;20041;-73
2022/08/02 09:55:15;;;;;;;16.25;14.60;;;;;;;;;;5053874;28;20384;-73
2022/08/02 09:57:41;;;;;;;17.00;15.27;;;;;;;;;;5055144;28;20037;-73
2022/08/02 10:00:09;;;;;;;15.63;14.02;;;;;;;;;;5054936;28;20036;-73
2022/08/02 10:02:37;;;;;;;15.48;13.98;;;;;;;;;;5056195;28;20048;-73
2022/08/02 10:05:03;;;;;;;16.02;14.50;;;;;;;;;;5054992;28;20025;-73
2022/08/02 10:07:29;;;;;;;16.00;14.50;;;;;;;;;;5054851;28;20033;-73
2022/08/02 10:09:54;;;;;;;16.95;15.15;;;;;;;;;;5054932;28;20021;-73
2022/08/02 10:12:21;;;;;;;17.67;14.45;;;;;;;;;;5055995;28;20044;-73
2022/08/02 10:14:48;;;;;;;15.13;13.40;;;;;;;;;;5054763;28;20082;-73
2022/08/02 10:17:14;;;;;;;13.63;12.32;;;;;;;;;;5056011;28;20028;-73
2022/08/02 10:19:39;;;;;;;13.15;11.88;;;;;;;;;;5054741;28;20058;-73
2022/08/02 10:22:08;;;;;;;12.60;11.18;;;;;;;;;;5055847;28;20121;-73
2022/08/02 10:24:36;;;;;;;13.10;11.85;;;;;;;;;;5056431;28;20025;-73
2022/08/02 10:27:02;;;;;;;12.70;11.40;;;;;;;;;;5055553;28;20533;-73
2022/08/02 10:29:37;;;;;;;11.20;10.20;;;;;;;;;;5055673;28;20111;-73
2022/08/02 10:32:07;;;;;;;11.82;10.63;;;;;;;;;;5056796;28;20453;-73
2022/08/02 10:34:32;;;;;;;;;;;;;;;;;;5057707;28;20025;-73
2022/08/02 10:37:01;;;;;;;10.93;9.93;;;;;;;;;;5056976;28;19927;-73
2022/08/02 10:39:27;;;;;;;11.25;10.00;;;;;;;;;;5055361;28;20283;-73
2022/08/02 10:41:52;;;;;;;12.35;11.15;;;;;;;;;;5056965;28;20032;-73
2022/08/02 10:44:36;;;;;;;11.98;10.98;;;;;;;;;;5056820;28;20057;-73
2022/08/02 10:47:15;;;;;;;10.88;9.98;;;;;;;;;;5056733;28;20052;-73
2022/08/02 10:49:52;;;;;;;11.00;10.10;;;;;;;;;;5056446;28;20401;-74
2022/08/02 10:52:18;;;;;;;12.55;10.35;;;;;;;;;;5055130;28;20068;-73
2022/08/02 10:54:49;;;;;;;10.45;9.55;;;;;;;;;;5056401;28;20032;-73
2022/08/02 10:57:17;;;;;;;9.82;8.85;;;;;;;;;;5056612;28;20380;-73
2022/08/02 10:59:42;;;;;;;10.23;9.38;;;;;;;;;;5054002;28;20487;-73
2022/08/02 11:02:08;;;;;;;9.68;8.80;;;;;;;;;;5055161;28;20033;-73
2022/08/02 11:04:40;;;;;;;9.30;8.43;;;;;;;;;;5053256;28;20023;-73
2022/08/02 11:07:13;;;;;;;8.75;8.07;;;;;;;;;;5054956;28;20024;-73
2022/08/02 11:09:39;;;;;;;9.80;8.80;;;;;;;;;;5055027;28;20044;-73
2022/08/02 11:12:05;;;;;;;7.93;7.32;;;;;;;;;;5054968;28;20025;-73
2022/08/02 11:14:32;;;;;;;9.23;8.43;;;;;;;;;;5053740;28;20029;-73
2022/08/02 11:16:58;;;;;;;9.30;8.40;;;;;;;;;;5054887;28;20075;-73
2022/08/02 11:19:26;;;;;;;9.25;8.38;;;;;;;;;;5054821;28;20033;-73
2022/08/02 11:21:59;;;;;;;8.38;7.75;;;;;;;;;;5053536;28;20024;-73
2022/08/02 11:24:28;;;;;;;8.65;7.85;;;;;;;;;;5053515;28;20113;-73
2022/08/02 11:26:54;;;;;;;8.45;7.85;;;;;;;;;;5053642;28;20032;-73
2022/08/02 11:29:20;;;;;;;8.15;7.45;;;;;;;;;;5053358;28;20032;-73
2022/08/02 11:31:45;;;;;;;9.55;8.65;;;;;;;;;;5053375;28;20052;-73
2022/08/02 11:34:11;;;;;;;8.65;7.88;;;;;;;;;;5053353;28;20465;-74
2022/08/02 11:36:47;;;;;;;9.00;8.30;;;;;;;;;;5054499;28;20029;-74
2022/08/02 11:39:14;;;;;;;7.97;7.45;;;;;;;;;;5054420;28;20389;-74
2022/08/02 11:41:39;;;;;;;8.23;7.57;;;;;;;;;;5054471;28;20028;-74
2022/08/02 11:44:05;;;;;;;9.00;8.05;;;;;;;;;;5053004;28;20037;-74
2022/08/02 11:46:30;;;;;;;8.60;7.82;;;;;;;;;;5054215;28;20031;-74
2022/08/02 11:48:56;;;;;;;8.32;7.47;;;;;;;;;;5053012;28;20025;-73
2022/08/02 11:51:21;;;;;;;8.02;7.30;;;;;;;;;;5053998;28;20485;-74
2022/08/02 11:53:51;;;;;;;6.45;5.93;;;;;;;;;;5054155;28;20108;-75
2022/08/02 11:56:31;;;;;;;7.30;6.68;;;;;;;;;;5054172;28;20021;-74
2022/08/02 11:59:07;;;;;;;8.75;7.88;;;;;;;;;;5054109;28;20369;-74
2022/08/02 12:01:33;;;;;;;6.35;5.90;;;;;;;;;;5054041;28;20110;-74
2022/08/02 12:03:59;;;;;;;8.18;7.47;;;;;;;;;;5053961;28;20024;-74
2022/08/02 12:06:27;;;;;;;6.90;6.30;;;;;;;;;;5053900;28;20112;-74
2022/08/02 12:08:57;;;;;;;7.57;6.88;;;;;;;;;;5052628;28;20032;-74
2022/08/02 12:11:23;;;;;;;6.03;5.25;;;;;;;;;;5053862;28;20035;-74
2022/08/02 12:13:48;;;;;;;6.53;6.13;;;;;;;;;;5052523;28;20017;-73
2022/08/02 12:21:42;;;;;;;6.68;6.07;;;;;;;;;;5053595;28;20028;-73
2022/08/02 12:24:07;;;;;;;6.60;6.10;;;;;;;;;;5053523;28;20412;-73
2022/08/02 12:26:46;;;;;;;7.07;6.43;;;;;;;;;;5053499;28;20389;-73
2022/08/02 12:29:11;;;;;;;6.47;5.88;;;;;;;;;;5052280;28;20024;-74
2022/08/02 12:31:46;;;;;;;7.22;6.18;;;;;;;;;;5052144;28;20025;-73
2022/08/02 12:34:17;;;;;;;6.38;5.97;;;;;;;;;;5052182;28;20496;-74
2022/08/02 12:36:43;;;;;;;6.40;5.90;;;;;;;;;;5052155;28;20369;-74
2022/08/02 12:39:15;;;;;;;7.57;6.85;;;;;;;;;;5053250;28;20025;-74
2022/08/02 12:41:41;;;;;;;6.38;6.07;;;;;;;;;;5052062;28;20047;-74
2022/08/02 12:44:13;;;;;;;7.38;6.78;;;;;;;;;;5051933;28;20025;-74
2022/08/02 12:46:39;;;;;;;8.18;6.57;;;;;;;;;;5052992;28;20484;-74
2022/08/02 12:49:14;;;;;;;7.78;6.45;;;;;;;;;;5051863;28;20084;-74
2022/08/02 12:51:40;;;;;;;7.60;7.00;;;;;;;;;;5052964;28;20060;-73
2022/08/02 12:54:11;;;;;;;7.28;6.57;;;;;;;;;;5053095;28;20021;-74
2022/08/02 12:56:37;;;;;;;8.23;7.50;;;;;;;;;;5051804;28;20069;-74
2022/08/02 12:59:03;;;;;;;8.07;7.35;;;;;;;;;;5052955;28;20029;-74
2022/08/02 13:01:29;;;;;;;13.02;8.15;;;;;;;;;;5052912;28;20503;-74
2022/08/02 13:03:54;;;;;;;7.95;7.30;;;;;;;;;;5052857;28;20017;-74
2022/08/02 13:06:20;;;;;;;6.95;6.30;;;;;;;;;;5051529;28;20093;-73
2022/08/02 13:08:46;;;;;;;6.95;6.35;;;;;;;;;;5051609;28;20024;-74
2022/08/02 13:11:12;;;;;;;6.35;5.85;;;;;;;;;;5052696;28;20028;-73
2022/08/02 13:13:37;;;;;;;7.20;6.70;;;;;;;;;;5052668;28;20396;-74
2022/08/02 13:16:03;;;;;;;7.53;6.88;;;;;;;;;;5052623;28;20479;-73
2022/08/02 13:18:28;;;;;;;7.72;6.93;;;;;;;;;;5052575;28;20035;-75
2022/08/02 13:20:54;;;;;;;8.55;6.75;;;;;;;;;;5052605;28;20035;-75
2022/08/02 13:23:19;;;;;;;11.52;6.75;;;;;;;;;;5052594;28;20013;-75
2022/08/02 13:25:45;;;;;;;7.88;7.28;;;;;;;;;;5052603;28;20033;-75
2022/08/02 13:28:10;;;;;;;6.90;6.30;;;;;;;;;;5050967;28;20464;-75
2022/08/02 13:30:36;;;;;;;6.95;6.40;;;;;;;;;;5051331;28;20029;-75
2022/08/02 13:33:01;;;;;;;7.82;6.20;;;;;;;;;;5052485;28;20025;-76
2022/08/02 13:35:27;;;;;;;7.10;5.50;;;;;;;;;;5051089;28;20025;-75
2022/08/02 13:37:52;;;;;;;6.22;5.63;;;;;;;;;;5052421;28;20025;-74
2022/08/02 13:40:18;;;;;;;5.13;4.70;;;;;;;;;;5052403;28;20025;-74
2022/08/02 13:42:43;;;;;;;6.07;5.47;;;;;;;;;;5052436;28;20056;-73
2022/08/02 13:45:09;;;;;;;5.57;5.07;;;;;;;;;;5052233;28;20025;-73
2022/08/02 13:47:36;;;;;;;5.15;4.78;;;;;;;;;;5052362;28;20021;-74
2022/08/02 13:50:02;;;;;;;5.10;4.60;;;;;;;;;;5034476;28;20400;-73
2022/08/02 13:52:27;;;;;;;4.80;4.30;;;;;;;;;;5052131;28;20049;-73
2022/08/02 13:54:53;;;;;;;8.15;5.60;;;;;;;;;;5051127;28;20069;-73
2022/08/02 13:57:18;;;;;;;8.68;5.60;;;;;;;;;;5051320;28;20083;-73
2022/08/02 13:59:44;;;;;;;5.28;4.97;;;;;;;;;;5052260;28;20532;-73
2022/08/02 14:02:09;;;;;;;5.28;4.43;;;;;;;;;;5034378;28;20033;-75
2022/08/02 14:04:37;;;;;;;4.70;4.30;;;;;;;;;;5052178;28;20053;-73
2022/08/02 14:07:02;;;;;;;4.65;4.25;;;;;;;;;;5052069;28;20358;-74
2022/08/02 14:09:28;;;;;;;7.60;4.63;;;;;;;;;;5052100;28;20116;-74
2022/08/02 14:11:54;;;;;;;4.40;4.10;;;;;;;;;;5052119;28;20104;-73
2022/08/02 14:14:19;;;;;;;6.72;4.40;;;;;;;;;;5052037;28;20113;-73
2022/08/02 14:16:44;;;;;;;5.05;4.22;;;;;;;;;;5052064;28;20053;-73
2022/08/02 14:19:10;;;;;;;4.32;4.03;;;;;;;;;;5051156;28;20057;-73
2022/08/02 14:21:36;;;;;;;4.25;4.03;;;;;;;;;;5052043;28;20029;-73
2022/08/02 14:24:01;;;;;;;4.90;4.50;;;;;;;;;;5051949;28;20040;-73
2022/08/02 14:26:26;;;;;;;4.82;4.50;;;;;;;;;;5050747;28;20028;-73
2022/08/02 14:28:52;;;;;;;5.10;4.47;;;;;;;;;;5050760;28;20025;-73
2022/08/02 14:31:17;;;;;;;4.85;4.40;;;;;;;;;;5051970;28;20013;-73
2022/08/02 14:33:43;;;;;;;5.63;4.43;;;;;;;;;;5051915;28;20029;-73
2022/08/02 14:36:08;;;;;;;5.18;4.70;;;;;;;;;;5050620;28;20434;-73
2022/08/02 14:38:35;;;;;;;4.80;4.50;;;;;;;;;;5050533;28;20074;-73
2022/08/02 14:41:00;;;;;;;6.22;4.90;;;;;;;;;;5054117;28;20051;-73
2022/08/02 14:46:10;;;;;;;4.80;4.50;;;;;;;;;;5055352;28;20033;-73